Time;durP1;ratioP1;P1;durP2;ratioP2;P2;SDS_P1;SDS_P2;PMS_P1;PMS_P2;Temp;Humidity;BMP_temperature;BMP_pressure;BME280_temperature;BME280_humidity;BME280_pressure;Samples;Min_cycle;Max_cycle;Signal;HPM_P1;HPM_P2
2023/10/08 00:01:55;;;;;;;11.52;4.97;;;;;;;13.36;74.53;99573.53;5092220;28;20115;-48
2023/10/08 00:04:22;;;;;;;12.02;5.00;;;;;;;13.36;74.68;99577.00;5092107;28;20024;-48
2023/10/08 00:06:48;;;;;;;11.77;4.90;;;;;;;13.49;74.70;99578.88;5092109;28;20020;-48
2023/10/08 00:09:14;;;;;;;8.93;4.70;;;;;;;13.51;74.12;99574.22;5092111;28;20023;-47
2023/10/08 00:11:40;;;;;;;9.00;4.53;;;;;;;13.45;73.81;99574.19;5092061;28;20115;-47
2023/10/08 00:14:10;;;;;;;17.65;5.10;;;;;;;13.63;74.62;99579.75;5090755;28;20116;-48
2023/10/08 00:16:39;;;;;;;9.68;4.70;;;;;;;13.84;73.38;99581.41;5090723;28;20386;-48
2023/10/08 00:19:09;;;;;;;9.27;4.35;;;;;;;13.73;72.46;99574.91;5090927;28;20032;-48
2023/10/08 00:21:37;;;;;;;13.15;5.97;;;;;;;13.52;72.47;99578.50;5091935;28;20074;-48
2023/10/08 00:24:06;;;;;;;10.90;5.38;;;;;;;13.41;73.14;99572.97;5091937;28;20020;-47
2023/10/08 00:26:34;;;;;;;14.07;6.45;;;;;;;13.22;73.65;99582.38;5091904;28;20107;-48
2023/10/08 00:29:16;;;;;;;18.83;8.43;;;;;;;13.06;74.98;99576.44;5091873;28;20024;-47
2023/10/08 00:31:45;;;;;;;10.90;6.50;;;;;;;13.05;75.17;99577.41;5091870;28;20028;-48
2023/10/08 00:34:15;;;;;;;17.15;6.28;;;;;;;13.07;75.30;99580.66;5090607;28;20110;-48
2023/10/08 00:36:43;;;;;;;17.90;6.72;;;;;;;13.12;75.63;99577.44;5091813;28;20486;-48
2023/10/08 00:39:33;;;;;;;17.15;5.05;;;;;;;13.27;75.52;99580.78;5090428;28;20107;-48
2023/10/08 00:41:58;;;;;;;20.48;5.20;;;;;;;13.38;73.98;99580.25;5091585;28;20028;-48
2023/10/08 00:44:29;;;;;;;16.30;5.47;;;;;;;13.35;74.27;99582.47;5095923;28;20050;-48
2023/10/08 00:47:00;;;;;;;19.38;5.82;;;;;;;13.38;74.54;99574.16;5094681;28;20043;-48
2023/10/08 00:49:54;;;;;;;22.20;7.30;;;;;;;13.44;73.71;99572.56;5094682;28;20056;-48
2023/10/08 00:52:29;;;;;;;12.90;6.07;;;;;;;13.51;73.92;99574.22;5095890;28;20571;-48
2023/10/08 00:55:39;;;;;;;10.05;4.88;;;;;;;13.50;72.92;99562.06;5095900;28;20074;-48
2023/10/08 00:57:48;;;;;;;23.23;8.55;;;;;;;13.33;73.08;99564.22;5089821;28;20039;-48
2023/10/08 01:00:21;;;;;;;31.00;16.48;;;;;;;13.40;73.51;99572.16;5094246;28;20024;-48
2023/10/08 01:02:55;;;;;;;19.00;8.32;;;;;;;13.47;73.17;99566.91;5094526;28;20069;-48
2023/10/08 01:05:28;;;;;;;51.25;16.98;;;;;;;13.47;73.11;99566.91;5095811;28;20040;-48
2023/10/08 01:07:55;;;;;;;25.63;11.32;;;;;;;13.54;72.96;99565.94;5095560;28;20028;-48
2023/10/08 01:10:24;;;;;;;23.35;9.50;;;;;;;13.68;73.43;99571.22;5095434;28;20103;-48
2023/10/08 01:13:11;;;;;;;12.13;6.38;;;;;;;13.76;72.00;99569.25;5095455;28;20055;-48
2023/10/08 01:15:37;;;;;;;9.45;5.20;;;;;;;13.62;71.60;99559.63;5095401;28;20024;-48
2023/10/08 01:18:06;;;;;;;41.65;7.28;;;;;;;13.49;72.07;99563.06;5094998;28;20047;-48
2023/10/08 01:20:38;;;;;;;19.52;5.63;;;;;;;13.37;72.48;99565.44;5095153;28;20432;-48
2023/10/08 01:23:16;;;;;;;10.85;5.05;;;;;;;13.18;72.58;99555.59;5095299;28;20486;-48
2023/10/08 01:25:50;;;;;;;19.98;5.47;;;;;;;13.24;74.14;99561.91;5095228;28;20474;-48
2023/10/08 01:28:28;;;;;;;12.38;5.82;;;;;;;13.35;74.09;99561.38;5095235;28;20028;-48
2023/10/08 01:30:55;;;;;;;12.55;5.05;;;;;;;13.33;73.42;99555.50;5093829;28;20028;-48
2023/10/08 01:33:26;;;;;;;16.45;6.95;;;;;;;13.24;73.57;99565.38;5094976;28;20035;-48
2023/10/08 01:35:52;;;;;;;23.33;8.63;;;;;;;13.24;74.23;99565.38;5094983;28;20028;-48
2023/10/08 01:38:23;;;;;;;25.63;13.13;;;;;;;13.22;74.27;99559.47;5093643;28;20440;-48
2023/10/08 01:40:52;;;;;;;38.97;23.77;;;;;;;13.25;74.57;99553.78;5094864;28;20047;-48
2023/10/08 01:43:19;;;;;;;34.10;21.65;;;;;;;13.34;74.57;99568.47;5094805;28;20505;-48
2023/10/08 01:45:50;;;;;;;29.90;23.95;;;;;;;13.52;74.18;99562.66;5094813;28;20032;-48
2023/10/08 01:48:28;;;;;;;15.27;8.70;;;;;;;13.51;72.79;99570.78;5094725;28;20115;-48
2023/10/08 01:51:03;;;;;;;16.45;10.57;;;;;;;13.50;73.07;99569.97;5094671;28;20089;-48
2023/10/08 01:53:30;;;;;;;34.72;16.55;;;;;;;13.50;73.11;99571.78;5092835;28;20032;-48
2023/10/08 01:55:56;;;;;;;15.77;7.63;;;;;;;13.67;73.42;99565.16;5093822;28;20039;-48
2023/10/08 01:58:25;;;;;;;25.20;18.38;;;;;;;13.81;72.71;99559.91;5093238;28;20020;-48
2023/10/08 02:00:52;;;;;;;12.90;7.57;;;;;;;13.88;72.13;99556.25;5093163;28;20028;-48
2023/10/08 02:03:18;;;;;;;12.52;5.97;;;;;;;13.89;71.99;99554.44;5094514;28;20043;-48
2023/10/08 02:05:47;;;;;;;23.67;6.22;;;;;;;13.93;71.71;99558.31;5093087;28;20028;-48
2023/10/08 02:08:14;;;;;;;34.00;6.45;;;;;;;13.92;71.14;99562.78;5093300;28;20120;-48
2023/10/08 02:10:47;;;;;;;10.13;4.40;;;;;;;13.81;70.63;99568.63;5094325;28;20062;-48
2023/10/08 02:13:14;;;;;;;9.52;4.53;;;;;;;13.44;70.94;99570.75;5094321;28;20436;-48
2023/10/08 02:15:51;;;;;;;13.73;6.07;;;;;;;13.15;71.70;99562.06;5094461;28;20032;-48
2023/10/08 02:18:18;;;;;;;8.18;4.97;;;;;;;13.15;72.05;99567.34;5093946;28;20052;-48
2023/10/08 02:20:44;;;;;;;10.40;4.57;;;;;;;13.08;72.33;99566.50;5094076;28;20020;-48
2023/10/08 02:23:11;;;;;;;9.20;4.10;;;;;;;13.11;72.60;99567.94;5094016;28;20039;-48
2023/10/08 02:25:39;;;;;;;11.27;4.88;;;;;;;13.14;72.68;99572.81;5094003;28;20020;-48
2023/10/08 02:28:08;;;;;;;10.40;4.80;;;;;;;13.15;72.51;99571.81;5093967;28;20027;-48
2023/10/08 02:30:36;;;;;;;10.45;4.72;;;;;;;13.29;73.16;99570.88;5093931;28;20505;-48
2023/10/08 02:33:02;;;;;;;12.77;5.18;;;;;;;13.52;72.17;99569.75;5093946;28;20135;-48
2023/10/08 02:35:28;;;;;;;10.32;4.68;;;;;;;13.44;71.47;99569.94;5093909;28;20089;-48
2023/10/08 02:37:54;;;;;;;10.20;4.60;;;;;;;13.15;71.30;99563.91;5093821;28;20028;-47
2023/10/08 02:40:26;;;;;;;8.68;4.50;;;;;;;13.06;72.35;99565.88;5093684;28;20103;-48
2023/10/08 02:42:58;;;;;;;8.65;4.95;;;;;;;13.07;72.01;99572.75;5093796;28;20032;-48
2023/10/08 02:45:27;;;;;;;10.13;5.30;;;;;;;13.05;72.40;99572.16;5093918;28;20428;-48
2023/10/08 02:47:55;;;;;;;9.93;4.55;;;;;;;13.22;72.51;99561.28;5093662;28;20028;-48
2023/10/08 02:50:22;;;;;;;11.93;6.07;;;;;;;13.48;72.86;99565.88;5075393;28;20065;-48
2023/10/08 02:52:51;;;;;;;8.30;4.93;;;;;;;13.66;71.63;99563.53;5092449;28;20043;-48
2023/10/08 02:55:34;;;;;;;7.32;4.70;;;;;;;13.73;71.10;99566.97;5093475;28;20028;-48
2023/10/08 02:58:03;;;;;;;13.20;5.32;;;;;;;13.65;70.27;99571.63;5093520;28;20203;-48
2023/10/08 03:00:29;;;;;;;18.27;10.23;;;;;;;13.38;70.38;99576.78;5091972;28;20020;-48
2023/10/08 03:03:01;;;;;;;26.60;16.13;;;;;;;13.13;71.27;99571.19;5093370;28;20017;-47
2023/10/08 03:05:35;;;;;;;17.02;10.48;;;;;;;13.18;71.76;99574.88;5092824;28;20020;-48
2023/10/08 03:08:13;;;;;;;15.75;10.50;;;;;;;13.11;71.57;99575.84;5093349;28;20029;-48
2023/10/08 03:10:41;;;;;;;18.00;11.90;;;;;;;13.04;71.93;99573.16;5093273;28;20050;-48
2023/10/08 03:13:09;;;;;;;36.63;21.70;;;;;;;13.13;72.49;99576.44;5091895;28;20062;-48
2023/10/08 03:15:40;;;;;;;20.38;10.95;;;;;;;13.31;72.18;99565.41;5093374;28;20043;-48
2023/10/08 03:18:10;;;;;;;19.42;9.98;;;;;;;13.54;72.06;99571.19;5091575;28;20097;-48
2023/10/08 03:20:42;;;;;;;9.82;5.90;;;;;;;13.71;71.22;99574.28;5093273;28;20035;-48
2023/10/08 03:23:13;;;;;;;13.57;4.57;;;;;;;13.71;70.59;99578.75;5092952;28;20020;-48
2023/10/08 03:25:41;;;;;;;11.43;5.70;;;;;;;13.48;70.44;99581.69;5091620;28;20104;-48
2023/10/08 03:28:13;;;;;;;11.35;6.47;;;;;;;13.24;70.66;99583.81;5092824;28;20056;-48
2023/10/08 03:30:56;;;;;;;14.43;5.95;;;;;;;12.97;70.92;99583.66;5092792;28;20020;-48
2023/10/08 03:33:26;;;;;;;181.57;20.30;;;;;;;12.89;72.60;99578.53;5091463;28;20406;-48
2023/10/08 03:35:55;;;;;;;342.92;32.50;;;;;;;13.28;72.68;99581.59;5092780;28;20110;-48
2023/10/08 03:38:28;;;;;;;441.33;38.42;;;;;;;13.58;71.85;99582.16;5092661;28;20056;-48
2023/10/08 03:41:09;;;;;;;265.42;25.05;;;;;;;13.92;70.88;99585.69;5092480;28;20028;-48
2023/10/08 03:43:42;;;;;;;224.98;34.28;;;;;;;14.17;69.98;99580.69;5092702;28;20087;-48
2023/10/08 03:46:15;;;;;;;253.82;36.42;;;;;;;14.24;69.33;99586.75;5092534;28;20447;-48
2023/10/08 03:48:44;;;;;;;50.35;9.88;;;;;;;14.07;68.19;99586.34;5092509;28;20099;-48
2023/10/08 03:51:12;;;;;;;24.95;7.05;;;;;;;13.69;68.41;99592.13;5092394;28;20039;-48
2023/10/08 03:53:59;;;;;;;31.88;13.07;;;;;;;13.38;69.39;99596.09;5091199;28;20020;-48
2023/10/08 03:56:31;;;;;;;15.85;6.60;;;;;;;13.22;69.72;99598.19;5092634;28;20063;-47
2023/10/08 03:59:01;;;;;;;19.50;5.95;;;;;;;13.07;70.23;99595.69;5092390;28;20047;-48
2023/10/08 04:01:31;;;;;;;46.50;8.55;;;;;;;12.86;70.47;99597.38;5091183;28;20161;-47
2023/10/08 04:06:37;;;;;;;23.67;6.82;;;;;;;13.03;71.84;99597.06;5092199;28;20028;-48
2023/10/08 04:12:11;;;;;;;42.17;10.95;;;;;;;13.41;71.27;99591.44;5092201;28;20490;-48
2023/10/08 04:14:28;;;;;;;44.72;16.58;;;;;;;13.50;70.12;99590.22;5091802;28;20409;-48
2023/10/08 04:16:54;;;;;;;47.90;17.80;;;;;;;13.31;69.88;99589.16;5091055;28;20130;-48
2023/10/08 04:19:29;;;;;;;23.40;11.00;;;;;;;13.34;70.89;99594.84;5090702;28;20134;-48
2023/10/08 04:21:55;;;;;;;15.57;6.40;;;;;;;13.42;69.89;99591.25;5090628;28;20024;-48
2023/10/08 04:24:29;;;;;;;19.33;11.35;;;;;;;13.16;69.73;99591.91;5090629;28;20089;-48
2023/10/08 04:26:57;;;;;;;15.48;8.77;;;;;;;13.08;70.73;99592.03;5091976;28;20028;-47
2023/10/08 04:29:24;;;;;;;10.90;6.75;;;;;;;13.07;70.37;99598.31;5091863;28;20441;-48
2023/10/08 04:32:01;;;;;;;11.63;7.50;;;;;;;12.87;70.58;99599.00;5092090;28;20406;-48
2023/10/08 04:34:30;;;;;;;12.85;7.40;;;;;;;12.72;70.74;99607.00;5090851;28;20039;-48
2023/10/08 04:37:00;;;;;;;27.17;12.38;;;;;;;12.50;71.33;99602.78;5090531;28;20028;-48
2023/10/08 04:39:33;;;;;;;12.98;5.32;;;;;;;12.44;72.07;99607.00;5091900;28;20024;-48
2023/10/08 04:42:06;;;;;;;22.00;7.32;;;;;;;12.48;72.56;99600.34;5090455;28;20432;-48
2023/10/08 04:44:33;;;;;;;11.75;6.00;;;;;;;12.51;72.42;99607.84;5091842;28;20080;-48
2023/10/08 04:47:04;;;;;;;17.67;9.65;;;;;;;12.38;72.59;99603.28;5090411;28;20114;-48
2023/10/08 04:49:32;;;;;;;20.98;13.43;;;;;;;12.18;72.92;99602.28;5091785;28;20040;-48
2023/10/08 04:52:08;;;;;;;14.32;6.78;;;;;;;12.05;73.47;99613.47;5091977;28;20035;-47
2023/10/08 04:54:39;;;;;;;17.30;9.65;;;;;;;12.05;74.29;99608.22;5091746;28;20028;-48
2023/10/08 04:57:14;;;;;;;29.02;20.38;;;;;;;12.08;74.10;99610.50;5091573;28;20028;-48
2023/10/08 04:59:44;;;;;;;33.40;8.43;;;;;;;12.15;74.52;99606.13;5091718;28;20055;-48
2023/10/08 05:12:38;;;;;;;11.68;5.55;;;;;;;11.53;76.03;99606.59;5049040;28;20029;-47
2023/10/08 05:23:32;;;;;;;9.38;5.40;;;;;;;11.22;78.00;99610.25;5049287;28;20032;-48
2023/10/08 05:28:25;;;;;;;10.10;5.63;;;;;;;11.59;78.85;99614.59;5049493;28;20021;-48
2023/10/08 05:36:28;;;;;;;12.77;6.00;;;;;;;12.04;76.56;99613.69;5052657;28;20087;-48
2023/10/08 05:39:04;;;;;;;11.82;5.68;;;;;;;11.84;76.73;99616.88;5068412;28;20032;-48
2023/10/08 05:41:39;;;;;;;11.43;5.10;;;;;;;11.63;76.76;99617.66;5093632;28;20028;-48
2023/10/08 05:44:14;;;;;;;10.18;5.88;;;;;;;11.47;76.83;99621.31;5094966;28;20028;-48
2023/10/08 05:49:38;;;;;;;20.45;9.98;;;;;;;11.85;77.72;99623.78;5094831;28;20451;-48
2023/10/08 06:13:06;;;;;;;64.60;12.90;;;;;;;14.31;69.08;99650.16;5094432;28;20036;-48
2023/10/08 06:16:05;;;;;;;67.72;17.27;;;;;;;14.61;68.05;99644.50;5094314;28;20073;-48
2023/10/08 06:18:33;;;;;;;24.75;13.77;;;;;;;15.01;65.98;99650.63;5094024;28;20127;-48
2023/10/08 06:21:01;;;;;;;30.90;13.07;;;;;;;15.18;64.85;99648.34;5092760;28;20031;-48
2023/10/08 06:23:32;;;;;;;16.88;6.43;;;;;;;15.11;64.23;99651.00;5094152;28;20023;-48
2023/10/08 06:25:58;;;;;;;31.30;16.35;;;;;;;14.92;64.38;99655.28;5094145;28;20027;-48
2023/10/08 06:28:26;;;;;;;28.33;21.40;;;;;;;14.84;64.42;99649.41;5094004;28;20032;-48
2023/10/08 06:30:55;;;;;;;30.35;19.90;;;;;;;14.82;64.52;99652.25;5093994;28;20112;-48
2023/10/08 06:33:30;;;;;;;27.15;17.67;;;;;;;14.83;64.25;99653.88;5092630;28;20081;-47
2023/10/08 06:36:13;;;;;;;29.92;14.35;;;;;;;14.90;64.71;99659.16;5093957;28;20024;-48
2023/10/08 06:38:49;;;;;;;20.52;14.85;;;;;;;15.03;64.14;99664.44;5092588;28;20441;-48
2023/10/08 06:41:17;;;;;;;27.10;19.27;;;;;;;15.07;63.96;99670.09;5092817;28;20497;-47
2023/10/08 06:44:02;;;;;;;11.00;6.70;;;;;;;14.98;63.17;99678.25;5093755;28;20101;-48
2023/10/08 06:46:32;;;;;;;13.18;7.97;;;;;;;14.65;64.20;99678.28;5093675;28;20024;-48
2023/10/08 06:49:03;;;;;;;33.72;24.60;;;;;;;14.69;65.03;99681.28;5092687;28;20421;-48
2023/10/08 06:51:32;;;;;;;40.70;21.23;;;;;;;15.10;64.66;99686.38;5092546;28;20477;-48
2023/10/08 06:54:02;;;;;;;36.15;17.05;;;;;;;15.91;63.15;99681.72;5093552;28;20103;-48
2023/10/08 06:56:28;;;;;;;11.95;5.65;;;;;;;16.89;60.31;99678.69;5093729;28;20050;-48
2023/10/08 06:58:54;;;;;;;31.70;16.52;;;;;;;17.51;58.95;99680.56;5092408;28;20024;-47
2023/10/08 07:01:24;;;;;;;40.97;18.42;;;;;;;18.15;57.14;99681.03;5091930;28;20028;-48
2023/10/08 07:04:03;;;;;;;32.30;13.65;;;;;;;18.76;55.04;99687.06;5093397;28;20059;-48
2023/10/08 07:06:33;;;;;;;20.33;12.15;;;;;;;19.26;52.86;99686.66;5092233;28;20032;-46
2023/10/08 07:09:05;;;;;;;27.77;12.68;;;;;;;19.67;51.81;99684.06;5093254;28;20028;-46
2023/10/08 07:11:35;;;;;;;19.85;9.55;;;;;;;20.13;50.80;99683.09;5093212;28;20024;-46
2023/10/08 07:14:01;;;;;;;6.40;4.57;;;;;;;20.54;49.51;99681.19;5091788;28;20514;-46
2023/10/08 07:16:28;;;;;;;11.68;4.70;;;;;;;20.80;48.50;99684.28;5091748;28;20389;-46
2023/10/08 07:19:01;;;;;;;6.72;4.22;;;;;;;21.09;47.44;99687.66;5074768;28;20101;-46
2023/10/08 07:21:44;;;;;;;7.82;4.50;;;;;;;21.31;46.24;99690.38;5092994;28;20028;-46
2023/10/08 07:24:21;;;;;;;9.30;4.93;;;;;;;21.31;45.81;99690.38;5091975;28;20401;-46
2023/10/08 07:26:49;;;;;;;7.85;4.78;;;;;;;21.51;46.10;99694.38;5092987;28;20077;-46
2023/10/08 07:29:17;;;;;;;13.25;4.70;;;;;;;21.84;45.38;99700.69;5092887;28;20023;-46
2023/10/08 07:31:48;;;;;;;38.78;11.90;;;;;;;21.91;44.93;99699.44;5091460;28;20042;-46
2023/10/08 07:34:25;;;;;;;10.43;5.10;;;;;;;21.93;44.83;99694.66;5092809;28;20028;-46
2023/10/08 07:36:52;;;;;;;11.60;4.35;;;;;;;22.28;44.20;99695.31;5092816;28;20028;-46
2023/10/08 07:39:33;;;;;;;10.98;4.65;;;;;;;22.56;42.75;99701.41;5092996;28;20103;-46
2023/10/08 07:42:05;;;;;;;10.07;5.07;;;;;;;22.82;42.68;99695.25;5092559;28;20027;-46
2023/10/08 07:44:35;;;;;;;9.55;4.68;;;;;;;23.05;41.71;99701.31;5092598;28;20016;-46
2023/10/08 07:47:01;;;;;;;7.68;4.15;;;;;;;23.53;41.11;99696.78;5091373;28;20027;-46
2023/10/08 07:49:30;;;;;;;10.65;6.25;;;;;;;23.90;40.17;99695.88;5092715;28;20497;-46
2023/10/08 07:51:58;;;;;;;10.00;4.47;;;;;;;24.20;39.50;99700.50;5092369;28;20024;-46
2023/10/08 07:54:27;;;;;;;13.80;8.77;;;;;;;24.53;38.75;99690.38;5092698;28;20020;-46
2023/10/08 07:57:08;;;;;;;11.35;5.07;;;;;;;24.87;38.34;99693.34;5092355;28;20020;-47
2023/10/08 07:59:38;;;;;;;14.55;5.88;;;;;;;25.27;37.53;99689.00;5092416;28;20028;-46
2023/10/08 08:02:12;;;;;;;14.13;5.90;;;;;;;25.67;36.85;99689.91;5092561;28;20028;-46
2023/10/08 08:04:40;;;;;;;7.50;4.57;;;;;;;26.16;36.33;99688.34;5092364;28;20038;-46
2023/10/08 08:07:06;;;;;;;8.93;4.90;;;;;;;26.81;35.46;99698.91;5092266;28;20035;-46
2023/10/08 08:09:37;;;;;;;12.77;5.55;;;;;;;27.41;33.81;99698.63;5090996;28;20016;-46
2023/10/08 08:12:10;;;;;;;9.18;5.07;;;;;;;27.83;33.09;99698.91;5092424;28;20024;-46
2023/10/08 08:14:38;;;;;;;15.85;5.32;;;;;;;28.19;32.30;99693.88;5092147;28;20016;-46
2023/10/08 08:17:13;;;;;;;16.40;5.65;;;;;;;28.18;32.10;99694.94;5091780;28;20024;-47
2023/10/08 08:19:47;;;;;;;30.88;13.70;;;;;;;28.43;31.67;99701.88;5092044;28;20043;-46
2023/10/08 08:22:23;;;;;;;14.23;5.55;;;;;;;28.73;31.36;99704.38;5091860;28;20031;-46
2023/10/08 08:25:02;;;;;;;12.15;5.45;;;;;;;29.36;30.73;99698.41;5091018;28;20043;-46
2023/10/08 08:27:34;;;;;;;10.77;5.03;;;;;;;29.84;30.08;99699.88;5092009;28;20027;-46
2023/10/08 08:30:10;;;;;;;12.95;5.35;;;;;;;30.10;29.61;99700.13;5092227;28;20423;-46
2023/10/08 08:32:40;;;;;;;11.32;5.43;;;;;;;29.95;30.29;99698.56;5091020;28;20020;-46
2023/10/08 08:35:09;;;;;;;9.43;5.05;;;;;;;28.78;32.01;99702.41;5090783;28;20033;-46
2023/10/08 08:37:38;;;;;;;6.78;4.97;;;;;;;28.06;32.21;99698.09;5091828;28;20012;-46
2023/10/08 08:40:28;;;;;;;11.07;5.07;;;;;;;28.38;31.64;99706.53;5091690;28;20031;-46
2023/10/08 08:42:55;;;;;;;9.65;5.10;;;;;;;28.27;32.13;99706.69;5091283;28;20521;-46
2023/10/08 08:45:24;;;;;;;7.38;4.82;;;;;;;29.24;30.66;99695.41;5091700;28;20079;-46
2023/10/08 08:47:51;;;;;;;8.00;5.22;;;;;;;29.53;29.83;99705.13;5090552;28;20012;-46
2023/10/08 08:50:19;;;;;;;29.67;26.65;;;;;;;29.39;30.41;99699.69;5091678;28;20440;-46
2023/10/08 08:52:48;;;;;;;32.92;27.60;;;;;;;29.87;30.27;99702.00;5091538;28;20028;-46
2023/10/08 08:55:17;;;;;;;10.10;8.10;;;;;;;30.24;29.72;99702.78;5091539;28;20139;-46
2023/10/08 08:57:46;;;;;;;11.13;6.32;;;;;;;30.50;29.26;99694.09;5091609;28;20103;-47
2023/10/08 09:00:14;;;;;;;14.10;9.68;;;;;;;30.91;28.59;99698.50;5091438;28;20115;-46
2023/10/08 09:02:41;;;;;;;13.93;6.18;;;;;;;31.20;28.41;99698.00;5090356;28;20034;-47
2023/10/08 09:05:23;;;;;;;10.82;6.28;;;;;;;31.35;27.89;99697.59;5093734;28;20032;-46
2023/10/08 09:07:54;;;;;;;13.35;5.78;;;;;;;31.42;27.94;99707.97;5095588;28;20031;-46
2023/10/08 09:10:27;;;;;;;11.10;5.50;;;;;;;31.52;26.99;99702.28;5094143;28;20440;-46
2023/10/08 09:12:53;;;;;;;18.15;6.15;;;;;;;31.55;27.15;99704.38;5095433;28;20027;-46
2023/10/08 09:15:22;;;;;;;25.88;6.10;;;;;;;31.63;26.78;99698.16;5095290;28;20053;-46
2023/10/08 09:17:49;;;;;;;14.75;7.18;;;;;;;31.65;25.92;99697.84;5095078;28;20094;-47
2023/10/08 09:20:15;;;;;;;17.58;8.00;;;;;;;31.71;25.57;99699.28;5095255;28;20027;-46
2023/10/08 09:22:41;;;;;;;11.30;8.25;;;;;;;31.97;24.85;99703.94;5095301;28;20451;-46
2023/10/08 09:25:07;;;;;;;15.43;7.53;;;;;;;32.27;24.15;99701.44;5095209;28;20024;-46
2023/10/08 09:27:33;;;;;;;294.95;267.98;;;;;;;32.45;23.32;99690.22;5095216;28;20016;-46
2023/10/08 09:30:07;;;;;;;25.15;16.73;;;;;;;32.59;23.79;99694.72;5095215;28;20028;-46
2023/10/08 09:32:33;;;;;;;13.27;6.47;;;;;;;32.61;23.33;99697.91;5095064;28;20111;-46
2023/10/08 09:35:00;;;;;;;9.82;5.20;;;;;;;32.79;22.72;99688.56;5093803;28;20054;-46
2023/10/08 09:37:27;;;;;;;9.20;4.80;;;;;;;32.79;22.88;99691.28;5093862;28;20084;-46
2023/10/08 09:39:56;;;;;;;9.70;4.90;;;;;;;32.71;22.92;99691.31;5093633;28;20056;-46
2023/10/08 09:42:24;;;;;;;10.05;4.63;;;;;;;32.56;22.84;99684.47;5093493;28;20498;-46
2023/10/08 09:44:50;;;;;;;7.68;4.57;;;;;;;32.44;23.17;99688.63;5094845;28;20024;-46
2023/10/08 09:47:22;;;;;;;10.10;4.65;;;;;;;32.46;23.82;99693.75;5094856;28;20043;-46
2023/10/08 09:50:07;;;;;;;10.32;4.57;;;;;;;32.56;23.09;99695.34;5094862;28;20081;-46
2023/10/08 09:52:44;;;;;;;12.52;3.75;;;;;;;32.59;23.17;99690.06;5094806;28;20024;-46
2023/10/08 09:55:10;;;;;;;12.40;5.10;;;;;;;32.66;23.45;99686.06;5094676;28;20448;-46
2023/10/08 09:57:37;;;;;;;13.63;4.63;;;;;;;32.47;23.33;99683.66;5094584;28;20024;-46
2023/10/08 10:00:14;;;;;;;9.75;4.03;;;;;;;32.08;23.94;99683.53;5094605;28;20393;-46
2023/10/08 10:02:42;;;;;;;7.68;3.88;;;;;;;32.22;23.50;99673.31;5094635;28;20445;-46
2023/10/08 10:05:11;;;;;;;6.43;3.58;;;;;;;32.49;23.29;99684.16;5094423;28;20024;-47
2023/10/08 10:07:41;;;;;;;7.43;3.90;;;;;;;32.94;23.00;99675.56;5094811;28;20028;-46
2023/10/08 10:10:33;;;;;;;9.50;4.00;;;;;;;33.49;22.72;99671.19;5094420;28;20046;-46
2023/10/08 10:12:59;;;;;;;7.93;4.32;;;;;;;33.77;22.38;99674.22;5094466;28;20020;-46
2023/10/08 10:15:25;;;;;;;8.82;3.78;;;;;;;33.97;22.14;99667.97;5093030;28;20371;-46
2023/10/08 10:17:51;;;;;;;7.07;4.07;;;;;;;34.14;21.67;99669.78;5093947;28;20050;-46
2023/10/08 10:20:18;;;;;;;10.50;3.83;;;;;;;34.24;21.91;99665.84;5092732;28;20081;-47
2023/10/08 10:22:45;;;;;;;13.02;4.45;;;;;;;34.52;21.70;99657.88;5094425;28;20024;-46
2023/10/08 10:25:17;;;;;;;9.40;3.67;;;;;;;34.82;21.55;99668.63;5094050;28;20024;-47
2023/10/08 10:27:58;;;;;;;10.02;4.10;;;;;;;35.08;21.18;99671.03;5094074;28;20036;-47
2023/10/08 10:30:27;;;;;;;10.75;4.43;;;;;;;35.45;20.93;99659.34;5092697;28;20028;-47
2023/10/08 10:32:54;;;;;;;6.40;4.05;;;;;;;35.68;20.24;99657.75;5093974;28;20073;-47
2023/10/08 10:35:20;;;;;;;8.18;4.25;;;;;;;35.84;20.20;99649.63;5093854;28;20028;-47
2023/10/08 10:37:52;;;;;;;9.65;4.18;;;;;;;35.96;20.05;99646.84;5093870;28;20087;-50
2023/10/08 10:40:41;;;;;;;8.90;3.83;;;;;;;36.26;19.83;99648.44;5093777;28;20028;-49
2023/10/08 10:43:09;;;;;;;9.98;4.25;;;;;;;36.54;19.64;99637.44;5094127;28;20047;-49
2023/10/08 10:45:46;;;;;;;4.82;3.47;;;;;;;36.69;19.21;99639.44;5093704;28;20035;-49
2023/10/08 10:51:19;;;;;;;8.20;4.40;;;;;;;36.68;19.82;99637.84;5093662;28;20035;-49
2023/10/08 10:53:56;;;;;;;5.85;3.78;;;;;;;36.70;19.12;99632.00;5092269;28;20137;-49
2023/10/08 10:56:30;;;;;;;8.40;3.78;;;;;;;36.40;19.47;99632.41;5093456;28;20032;-49
2023/10/08 10:59:26;;;;;;;10.50;5.13;;;;;;;36.14;20.26;99628.19;5093510;28;20025;-49
2023/10/08 11:02:06;;;;;;;7.10;3.95;;;;;;;36.31;18.83;99631.78;5093089;28;20036;-49
2023/10/08 11:04:33;;;;;;;6.25;4.10;;;;;;;36.45;19.23;99626.69;5093390;28;20049;-49
2023/10/08 11:07:00;;;;;;;7.95;3.83;;;;;;;36.51;19.35;99621.75;5093195;28;20024;-49
2023/10/08 11:09:38;;;;;;;7.03;3.53;;;;;;;36.35;19.04;99613.53;5091930;28;20027;-49
2023/10/08 11:12:10;;;;;;;10.20;4.13;;;;;;;36.39;18.92;99608.94;5093460;28;20397;-49
2023/10/08 11:14:46;;;;;;;6.53;4.20;;;;;;;36.52;17.86;99609.66;5093231;28;20074;-49
2023/10/08 11:17:15;;;;;;;5.75;3.75;;;;;;;36.67;17.56;99597.97;5092772;28;20028;-50
2023/10/08 11:19:42;;;;;;;11.57;3.88;;;;;;;36.45;18.57;99602.09;5093147;28;20084;-49
2023/10/08 11:22:15;;;;;;;6.10;4.20;;;;;;;36.30;18.39;99591.91;5092919;28;20023;-49
2023/10/08 11:24:44;;;;;;;6.72;4.28;;;;;;;36.27;18.42;99596.16;5093082;28;20035;-49
2023/10/08 11:27:17;;;;;;;8.27;3.95;;;;;;;35.97;19.04;99592.97;5092802;28;20020;-50
2023/10/08 11:29:46;;;;;;;5.18;3.72;;;;;;;35.90;19.00;99585.41;5091892;28;20036;-49
2023/10/08 11:32:12;;;;;;;7.22;3.78;;;;;;;35.76;19.32;99582.28;5092754;28;20024;-49
2023/10/08 11:34:40;;;;;;;6.93;3.80;;;;;;;35.74;18.99;99579.09;5092710;28;20026;-49
2023/10/08 11:37:25;;;;;;;8.73;4.15;;;;;;;35.53;19.36;99582.75;5092705;28;20046;-49
2023/10/08 11:39:53;;;;;;;4.40;3.60;;;;;;;35.57;19.34;99577.41;5091679;28;20043;-49
2023/10/08 11:45:17;;;;;;;8.20;3.90;;;;;;;35.77;18.72;99562.00;5092635;28;20405;-50
2023/10/08 11:47:45;;;;;;;7.20;3.80;;;;;;;35.83;18.67;99571.53;5092626;28;20031;-49
2023/10/08 11:50:16;;;;;;;9.63;4.55;;;;;;;35.99;18.23;99561.41;5092376;28;20250;-49
2023/10/08 11:52:43;;;;;;;5.50;3.88;;;;;;;36.05;18.70;99563.91;5092425;28;20028;-49
2023/10/08 11:55:10;;;;;;;8.23;4.30;;;;;;;36.14;18.19;99553.59;5091203;28;20020;-49
2023/10/08 11:57:36;;;;;;;8.20;3.83;;;;;;;36.21;18.06;99558.50;5092632;28;20440;-50
2023/10/08 12:00:18;;;;;;;9.77;4.25;;;;;;;36.17;18.55;99550.22;5090966;28;20016;-49
2023/10/08 12:02:48;;;;;;;7.78;4.18;;;;;;;36.01;18.61;99547.41;5092363;28;20034;-49
2023/10/08 12:05:20;;;;;;;9.93;4.65;;;;;;;35.99;18.57;99545.03;5090927;28;20114;-49
2023/10/08 12:07:55;;;;;;;8.88;4.30;;;;;;;35.79;18.84;99538.66;5091274;28;20040;-49
2023/10/08 12:10:23;;;;;;;6.82;4.22;;;;;;;35.68;18.36;99534.03;5092214;28;20027;-49
2023/10/08 12:12:54;;;;;;;7.93;4.28;;;;;;;35.50;18.99;99533.53;5090824;28;20036;-49
2023/10/08 12:15:30;;;;;;;7.18;4.50;;;;;;;35.41;18.91;99534.44;5090842;28;20051;-49
2023/10/08 12:18:08;;;;;;;7.70;4.22;;;;;;;35.42;19.45;99537.97;5091793;28;20044;-49
2023/10/08 12:20:38;;;;;;;5.93;4.47;;;;;;;35.44;19.27;99522.06;5091978;28;20057;-49
2023/10/08 12:23:06;;;;;;;8.00;4.35;;;;;;;35.44;19.19;99522.06;5091937;28;20389;-49
2023/10/08 12:25:32;;;;;;;6.68;4.15;;;;;;;35.39;19.47;99520.34;5090733;28;20069;-49
2023/10/08 12:28:04;;;;;;;6.93;4.30;;;;;;;35.22;19.58;99514.41;5091941;28;20020;-49
2023/10/08 12:30:31;;;;;;;11.80;4.63;;;;;;;35.26;20.02;99516.06;5091960;28;20031;-49
2023/10/08 12:32:57;;;;;;;6.70;4.43;;;;;;;35.38;19.90;99505.13;5090584;28;20028;-49
2023/10/08 12:35:24;;;;;;;12.73;5.65;;;;;;;35.29;20.16;99514.59;5091821;28;20042;-49
2023/10/08 12:37:50;;;;;;;15.93;4.72;;;;;;;35.24;20.21;99503.94;5090012;28;20020;-49
2023/10/08 12:40:31;;;;;;;13.68;5.13;;;;;;;35.20;20.16;99504.59;5073785;28;20020;-49
2023/10/08 12:42:59;;;;;;;7.75;4.28;;;;;;;35.05;20.40;99501.78;5090566;28;20060;-49
2023/10/08 12:45:27;;;;;;;10.95;4.72;;;;;;;34.77;20.83;99494.31;5090450;28;20040;-49
2023/10/08 12:47:53;;;;;;;9.80;4.68;;;;;;;34.40;21.06;99500.53;5091702;28;20028;-49